createdAt,value
2022-12-23T00:00:01.942Z,100053.29
2022-12-23T00:01:07.855Z,100056.20
2022-12-23T00:02:13.214Z,100056.98
2022-12-23T00:03:16.353Z,100060.55
2022-12-23T00:04:19.718Z,100058.59
2022-12-23T00:05:22.710Z,100058.84
2022-12-23T00:06:26.110Z,100054.48
2022-12-23T00:07:29.272Z,100058.70
2022-12-23T00:08:32.307Z,100056.34
2022-12-23T00:09:35.320Z,100058.71
2022-12-23T00:10:40.277Z,100061.62
2022-12-23T00:12:03.221Z,100060.23
2022-12-23T00:13:26.085Z,100060.80
2022-12-23T00:14:47.987Z,100058.23
2022-12-23T00:15:51.012Z,100054.57
2022-12-23T00:16:54.215Z,100053.95
2022-12-23T00:17:57.159Z,100054.84
2022-12-23T00:19:00.504Z,100055.23
2022-12-23T00:20:05.131Z,100050.52
2022-12-23T00:21:11.409Z,100049.20
2022-12-23T00:22:14.587Z,100047.20
2022-12-23T00:23:17.557Z,100046.30
2022-12-23T00:24:20.733Z,100043.45
2022-12-23T00:25:40.388Z,100046.44
2022-12-23T00:26:43.921Z,100044.18
2022-12-23T00:28:01.538Z,100045.29
2022-12-23T00:29:05.072Z,100043.90
2022-12-23T00:30:10.702Z,100046.44
2022-12-23T00:31:15.662Z,100045.62
2022-12-23T00:32:18.739Z,100045.74
2022-12-23T00:33:24.583Z,100047.91
2022-12-23T00:34:27.594Z,100046.89
2022-12-23T00:35:32.359Z,100046.55
2022-12-23T00:36:38.511Z,100048.61
2022-12-23T00:37:41.610Z,100047.50
2022-12-23T00:39:03.744Z,100049.92
2022-12-23T00:40:28.254Z,100048.65
2022-12-23T00:41:50.547Z,100049.36
2022-12-23T00:42:53.608Z,100051.24
2022-12-23T00:43:57.207Z,100053.58
2022-12-23T00:45:15.723Z,100053.13
2022-12-23T00:46:19.243Z,100057.34
2022-12-23T00:47:41.735Z,100057.18
2022-12-23T00:49:03.668Z,100059.77
2022-12-23T00:50:07.711Z,100056.79
2022-12-23T00:51:10.786Z,100063.17
2022-12-23T00:52:17.846Z,100063.17
2022-12-23T00:53:21.057Z,100063.91
2022-12-23T00:54:24.279Z,100066.16
2022-12-23T00:55:27.333Z,100065.98
2022-12-23T00:56:30.960Z,100065.40
2022-12-23T00:57:34.652Z,100072.44
2022-12-23T00:58:37.832Z,100068.88
2022-12-23T00:59:41.187Z,100068.30
2022-12-23T01:01:04.150Z,100066.29
2022-12-23T01:02:26.154Z,100065.63
2022-12-23T01:03:48.393Z,100065.35
2022-12-23T01:05:10.593Z,100064.55
2022-12-23T01:06:14.401Z,100068.63
2022-12-23T01:07:17.398Z,100065.71
2022-12-23T01:08:23.319Z,100066.10
2022-12-23T01:09:27.090Z,100058.89
2022-12-23T01:10:30.545Z,100061.43
2022-12-23T01:11:34.234Z,100060.61
2022-12-23T01:12:37.224Z,100059.75
2022-12-23T01:13:40.277Z,100058.93
2022-12-23T01:14:43.342Z,100058.80
2022-12-23T01:15:46.731Z,100060.77
2022-12-23T01:16:49.925Z,100057.36
2022-12-23T01:17:53.009Z,100057.73
2022-12-23T01:18:55.980Z,100057.81
2022-12-23T01:19:59.006Z,100055.77
2022-12-23T01:21:08.378Z,100057.61
2022-12-23T01:22:11.288Z,100053.14
2022-12-23T01:23:14.304Z,100054.34
2022-12-23T01:24:17.320Z,100053.52
2022-12-23T01:25:20.413Z,100055.95
2022-12-23T01:26:23.443Z,100055.25
2022-12-23T01:27:26.395Z,100051.63
2022-12-23T01:28:31.096Z,100052.85
2022-12-23T01:29:34.027Z,100057.16
2022-12-23T01:30:37.894Z,100056.95
2022-12-23T01:31:41.274Z,100059.65
2022-12-23T01:32:44.204Z,100063.55
2022-12-23T01:33:47.492Z,100063.30
2022-12-23T01:34:50.485Z,100058.06
2022-12-23T01:36:00.372Z,100059.79
2022-12-23T01:37:03.697Z,100064.86
2022-12-23T01:38:06.594Z,100061.45
2022-12-23T01:39:09.687Z,100062.70
2022-12-23T01:40:13.003Z,100063.92
2022-12-23T01:41:47.097Z,100060.96
2022-12-23T01:42:51.041Z,100065.92
2022-12-23T01:43:54.771Z,100060.85
2022-12-23T01:45:04.583Z,100063.88
2022-12-23T01:46:07.626Z,100063.88
2022-12-23T01:47:14.867Z,100063.52
2022-12-23T01:48:24.363Z,100058.45
2022-12-23T01:49:27.381Z,100064.27
2022-12-23T01:50:32.935Z,100060.00
2022-12-23T01:51:36.418Z,100057.46
2022-12-23T01:53:10.078Z,100053.11
2022-12-23T01:54:13.237Z,100057.95
2022-12-23T01:55:20.811Z,100060.63
2022-12-23T01:56:26.931Z,100061.11
2022-12-23T01:57:30.717Z,100061.45
2022-12-23T01:58:43.105Z,100059.51
2022-12-23T02:00:05.679Z,100064.55
2022-12-23T02:01:29.405Z,100068.18
2022-12-23T02:02:54.756Z,100067.94
2022-12-23T02:04:01.510Z,100066.31
2022-12-23T02:05:04.873Z,100066.73
2022-12-23T02:06:48.033Z,100071.02
2022-12-23T02:08:11.905Z,100063.53
2022-12-23T02:09:25.388Z,100061.17
2022-12-23T02:10:40.322Z,100060.95
2022-12-23T02:12:05.247Z,100058.78
2022-12-23T02:13:22.761Z,100063.48
2022-12-23T02:15:06.660Z,100064.79
2022-12-23T02:16:16.964Z,100062.35
2022-12-23T02:17:42.364Z,100062.03
2022-12-23T02:18:59.367Z,100063.66
2022-12-23T02:20:05.058Z,100066.33
2022-12-23T02:21:26.500Z,100066.04
2022-12-23T02:22:58.126Z,100061.15
2022-12-23T02:24:22.883Z,100062.06
2022-12-23T02:25:37.784Z,100063.70
2022-12-23T02:26:46.739Z,100064.81
2022-12-23T02:28:25.955Z,100067.92
2022-12-23T02:29:44.511Z,100068.07
2022-12-23T02:31:28.500Z,100069.11
2022-12-23T02:32:38.328Z,100063.63
2022-12-23T02:33:54.953Z,100066.27
2022-12-23T02:35:29.288Z,100058.33
2022-12-23T02:36:43.671Z,100061.48
2022-12-23T02:38:09.923Z,100061.46
2022-12-23T02:39:29.258Z,100057.90
2022-12-23T02:40:47.772Z,100055.38
2022-12-23T02:41:59.105Z,100050.48
2022-12-23T02:43:04.808Z,100050.99
2022-12-23T02:44:34.031Z,100058.68
2022-12-23T02:46:12.297Z,100055.27
2022-12-23T02:47:42.455Z,100059.38
2022-12-23T02:49:12.970Z,100058.28
2022-12-23T02:50:25.423Z,100060.57
2022-12-23T02:51:34.997Z,100057.38
2022-12-23T02:52:41.340Z,100054.31
2022-12-23T02:53:55.034Z,100055.58
2022-12-23T02:55:08.546Z,100046.12
2022-12-23T02:56:14.630Z,100050.07
2022-12-23T02:57:23.464Z,100047.93
2022-12-23T02:58:36.634Z,100045.02
2022-12-23T02:59:44.697Z,100053.01
2022-12-23T03:00:49.611Z,100055.67
2022-12-23T03:01:54.683Z,100055.55
2022-12-23T03:02:59.421Z,100054.17
2022-12-23T03:04:02.808Z,100050.42
2022-12-23T03:05:07.179Z,100051.15
2022-12-23T03:06:27.527Z,100054.72
2022-12-23T03:07:35.460Z,100054.23
2022-12-23T03:08:43.484Z,100052.63
2022-12-23T03:10:09.456Z,100055.02
2022-12-23T03:11:15.317Z,100050.18
2022-12-23T03:12:39.065Z,100054.28
2022-12-23T03:14:05.149Z,100053.73
2022-12-23T03:15:17.111Z,100055.80
2022-12-23T03:16:57.907Z,100050.89
2022-12-23T03:18:16.655Z,100046.91
2022-12-23T03:19:42.792Z,100043.79
2022-12-23T03:21:08.925Z,100046.66
2022-12-23T03:22:17.513Z,100052.77
2022-12-23T03:23:26.208Z,100054.16
2022-12-23T03:24:44.771Z,100057.48
2022-12-23T03:25:59.036Z,100060.22
2022-12-23T03:27:15.373Z,100061.81
2022-12-23T03:28:33.918Z,100061.60
2022-12-23T03:29:54.340Z,100055.95
2022-12-23T03:31:01.364Z,100059.50
2022-12-23T03:32:06.319Z,100058.77
2022-12-23T03:33:17.639Z,100057.23
2022-12-23T03:34:26.117Z,100059.77
2022-12-23T03:35:41.095Z,100057.00
2022-12-23T03:36:57.337Z,100054.10
2022-12-23T03:38:02.775Z,100052.29
2022-12-23T03:39:10.684Z,100054.10
2022-12-23T03:40:21.999Z,100056.44
2022-12-23T03:41:31.343Z,100056.92
2022-12-23T03:42:40.670Z,100053.39
2022-12-23T03:43:51.220Z,100058.69
2022-12-23T03:45:28.443Z,100057.34
2022-12-23T03:46:27.887Z,100061.11
2022-12-23T03:47:35.905Z,100064.05
2022-12-23T03:49:03.702Z,100064.91
2022-12-23T03:50:11.440Z,100065.03
2022-12-23T03:51:24.258Z,100066.21
2022-12-23T03:52:53.590Z,100065.40
2022-12-23T03:54:02.323Z,100064.77
2022-12-23T03:55:11.697Z,100066.10
2022-12-23T03:56:28.904Z,100064.75
2022-12-23T03:57:41.760Z,100063.48
2022-12-23T03:58:56.286Z,100063.61
2022-12-23T03:59:59.439Z,100066.88
2022-12-23T04:01:27.146Z,100063.92
2022-12-23T04:02:36.790Z,100069.95
2022-12-23T04:03:56.026Z,100065.85
2022-12-23T04:05:11.662Z,100062.83
2022-12-23T04:06:17.759Z,100063.52
2022-12-23T04:07:30.558Z,100062.45
2022-12-23T04:08:36.487Z,100061.19
2022-12-23T04:09:40.401Z,100061.40
2022-12-23T04:10:43.533Z,100058.30
2022-12-23T04:11:47.811Z,100058.21
2022-12-23T04:12:51.978Z,100056.30
2022-12-23T04:13:54.966Z,100050.92
2022-12-23T04:14:58.060Z,100053.67
2022-12-23T04:16:02.920Z,100052.24
2022-12-23T04:17:06.152Z,100052.25
2022-12-23T04:18:10.938Z,100048.70
2022-12-23T04:19:14.158Z,100050.76
2022-12-23T04:20:17.363Z,100055.52
2022-12-23T04:21:20.479Z,100052.52
2022-12-23T04:22:23.499Z,100055.60
2022-12-23T04:23:26.593Z,100056.29
2022-12-23T04:24:29.647Z,100053.23
2022-12-23T04:25:32.646Z,100055.22
2022-12-23T04:26:35.737Z,100053.14
2022-12-23T04:27:39.119Z,100058.95
2022-12-23T04:28:42.122Z,100059.36
2022-12-23T04:29:45.144Z,100064.84
2022-12-23T04:30:48.061Z,100060.16
2022-12-23T04:31:51.142Z,100057.42
2022-12-23T04:32:54.282Z,100057.26
2022-12-23T04:33:57.467Z,100056.73
2022-12-23T04:35:00.525Z,100058.24
2022-12-23T04:36:03.629Z,100055.83
2022-12-23T04:37:06.645Z,100053.17
2022-12-23T04:38:09.695Z,100057.23
2022-12-23T04:39:12.777Z,100057.27
2022-12-23T04:40:15.990Z,100058.91
2022-12-23T04:41:19.021Z,100054.85
2022-12-23T04:42:22.111Z,100052.88
2022-12-23T04:43:25.265Z,100050.99
2022-12-23T04:44:28.205Z,100055.34
2022-12-23T04:45:32.802Z,100057.88
2022-12-23T04:46:35.795Z,100054.96
2022-12-23T04:47:38.993Z,100060.70
2022-12-23T04:48:42.311Z,100062.86
2022-12-23T04:49:45.405Z,100067.22
2022-12-23T04:50:48.483Z,100074.12
2022-12-23T04:51:51.554Z,100071.37
2022-12-23T04:52:54.596Z,100069.85
2022-12-23T04:53:57.595Z,100074.28
2022-12-23T04:55:00.682Z,100073.92
2022-12-23T04:56:04.325Z,100072.11
2022-12-23T04:57:07.561Z,100073.34
2022-12-23T04:58:10.538Z,100070.48
2022-12-23T04:59:13.875Z,100069.04
2022-12-23T05:00:17.296Z,100065.63
2022-12-23T05:01:20.612Z,100064.25
2022-12-23T05:02:23.749Z,100063.55
2022-12-23T05:03:26.938Z,100063.88
2022-12-23T05:04:30.243Z,100064.45
2022-12-23T05:05:33.240Z,100063.79
2022-12-23T05:06:37.501Z,100064.09
2022-12-23T05:07:40.432Z,100065.96
2022-12-23T05:08:43.475Z,100067.92
2022-12-23T05:09:46.668Z,100069.81
2022-12-23T05:10:49.696Z,100069.64
2022-12-23T05:11:52.908Z,100066.20
2022-12-23T05:12:55.828Z,100068.41
2022-12-23T05:13:58.773Z,100066.95
2022-12-23T05:15:02.006Z,100067.90
2022-12-23T05:16:05.472Z,100069.70
2022-12-23T05:17:08.476Z,100065.48
2022-12-23T05:18:12.569Z,100064.66
2022-12-23T05:19:15.595Z,100063.76
2022-12-23T05:20:18.767Z,100062.56
2022-12-23T05:21:21.800Z,100063.92
2022-12-23T05:22:24.821Z,100057.93
2022-12-23T05:23:27.944Z,100061.87
2022-12-23T05:24:30.939Z,100059.86
2022-12-23T05:25:36.356Z,100053.38
2022-12-23T05:26:39.291Z,100056.37
2022-12-23T05:27:42.257Z,100060.27
2022-12-23T05:28:45.746Z,100058.50
2022-12-23T05:29:48.751Z,100057.08
2022-12-23T05:31:01.381Z,100062.35
2022-12-23T05:32:04.710Z,100058.00
2022-12-23T05:33:08.069Z,100062.16
2022-12-23T05:34:11.171Z,100064.18
2022-12-23T05:35:14.283Z,100065.52
2022-12-23T05:36:17.566Z,100063.92
2022-12-23T05:37:20.704Z,100061.02
2022-12-23T05:38:24.647Z,100057.33
2022-12-23T05:39:27.638Z,100060.64
2022-12-23T05:40:31.648Z,100058.88
2022-12-23T05:41:36.379Z,100052.23
2022-12-23T05:42:39.521Z,100052.20
2022-12-23T05:43:43.062Z,100048.23
2022-12-23T05:44:46.099Z,100053.57
2022-12-23T05:45:50.368Z,100049.92
2022-12-23T05:46:53.504Z,100052.83
2022-12-23T05:47:56.566Z,100053.16
2022-12-23T05:48:59.994Z,100050.17
2022-12-23T05:50:04.122Z,100046.52
2022-12-23T05:51:07.399Z,100047.95
2022-12-23T05:52:10.556Z,100044.77
2022-12-23T05:53:13.531Z,100045.74
2022-12-23T05:54:16.594Z,100044.23
2022-12-23T05:55:19.654Z,100047.79
2022-12-23T05:56:22.812Z,100047.17
2022-12-23T05:57:26.094Z,100044.27
2022-12-23T05:58:29.203Z,100041.31
2022-12-23T05:59:32.313Z,100048.16
2022-12-23T06:00:35.357Z,100049.27
2022-12-23T06:01:38.492Z,100051.63
2022-12-23T06:02:42.220Z,100055.97
2022-12-23T06:03:45.895Z,100055.52
2022-12-23T06:04:49.825Z,100062.33
2022-12-23T06:05:53.018Z,100062.36
2022-12-23T06:06:56.685Z,100067.33
2022-12-23T06:07:59.910Z,100065.45
2022-12-23T06:09:03.330Z,100064.01
2022-12-23T06:10:09.151Z,100065.33
2022-12-23T06:11:13.176Z,100067.13
2022-12-23T06:12:16.157Z,100065.70
2022-12-23T06:13:19.257Z,100065.30
2022-12-23T06:14:26.967Z,100068.61
2022-12-23T06:15:32.423Z,100067.38
2022-12-23T06:16:35.398Z,100060.98
2022-12-23T06:17:38.967Z,100058.98
2022-12-23T06:18:42.007Z,100059.80
2022-12-23T06:19:45.063Z,100065.90
2022-12-23T06:20:48.425Z,100067.55
2022-12-23T06:21:51.393Z,100066.92
2022-12-23T06:22:54.392Z,100067.79
2022-12-23T06:23:57.760Z,100068.71
2022-12-23T06:25:00.737Z,100065.67
2022-12-23T06:26:04.531Z,100070.35
2022-12-23T06:27:07.919Z,100072.48
2022-12-23T06:28:10.997Z,100073.10
2022-12-23T06:29:14.232Z,100076.02
2022-12-23T06:30:17.278Z,100072.58
2022-12-23T06:31:20.346Z,100066.59
2022-12-23T06:32:23.382Z,100067.13
2022-12-23T06:33:26.516Z,100068.80
2022-12-23T06:34:30.025Z,100068.23
2022-12-23T06:35:33.118Z,100064.42
2022-12-23T06:36:36.141Z,100065.48
2022-12-23T06:37:39.260Z,100059.71
2022-12-23T06:38:42.364Z,100059.50
2022-12-23T06:39:45.659Z,100064.45
2022-12-23T06:40:48.813Z,100066.27
2022-12-23T06:41:51.822Z,100065.73
2022-12-23T06:42:54.837Z,100068.19
2022-12-23T06:43:57.747Z,100070.94
2022-12-23T06:45:00.940Z,100065.23
2022-12-23T06:46:04.138Z,100069.63
2022-12-23T06:47:07.190Z,100070.44
2022-12-23T06:48:10.394Z,100076.87
2022-12-23T06:49:13.945Z,100079.05
2022-12-23T06:50:17.597Z,100079.42
2022-12-23T06:51:21.598Z,100076.26
2022-12-23T06:52:24.527Z,100078.75
2022-12-23T06:53:27.625Z,100081.13
2022-12-23T06:54:30.676Z,100080.20
2022-12-23T06:55:33.929Z,100081.58
2022-12-23T06:56:36.972Z,100080.60
2022-12-23T06:57:40.297Z,100085.35
2022-12-23T06:58:43.454Z,100083.92
2022-12-23T06:59:46.573Z,100090.11
2022-12-23T07:00:50.114Z,100086.38
2022-12-23T07:01:53.380Z,100084.16
2022-12-23T07:02:56.793Z,100083.70
2022-12-23T07:04:00.128Z,100086.17
2022-12-23T07:05:03.196Z,100083.17
2022-12-23T07:06:06.779Z,100090.88
2022-12-23T07:07:09.826Z,100094.81
2022-12-23T07:08:12.880Z,100099.36
2022-12-23T07:09:16.030Z,100103.16
2022-12-23T07:10:19.133Z,100105.98
2022-12-23T07:11:22.128Z,100105.64
2022-12-23T07:12:25.074Z,100112.94
2022-12-23T07:13:28.061Z,100113.55
2022-12-23T07:14:31.110Z,100112.69
2022-12-23T07:15:34.185Z,100108.59
2022-12-23T07:16:37.808Z,100112.20
2022-12-23T07:17:40.891Z,100111.66
2022-12-23T07:18:44.091Z,100112.73
2022-12-23T07:19:47.046Z,100111.90
2022-12-23T07:20:51.369Z,100109.61
2022-12-23T07:21:54.579Z,100108.30
2022-12-23T07:22:58.232Z,100104.56
2022-12-23T07:24:01.232Z,100101.25
2022-12-23T07:25:04.508Z,100101.70
2022-12-23T07:26:07.579Z,100101.65
2022-12-23T07:27:10.979Z,100098.09
2022-12-23T07:28:13.967Z,100097.35
2022-12-23T07:29:16.921Z,100097.85
2022-12-23T07:30:20.011Z,100100.71
2022-12-23T07:31:23.415Z,100098.05
2022-12-23T07:32:26.681Z,100096.00
2022-12-23T07:33:29.756Z,100097.36
2022-12-23T07:34:32.746Z,100097.36
2022-12-23T07:35:36.437Z,100103.92
2022-12-23T07:36:40.083Z,100099.12
2022-12-23T07:37:43.640Z,100100.92
2022-12-23T07:38:51.300Z,100106.13
2022-12-23T07:39:54.327Z,100106.90
2022-12-23T07:40:57.327Z,100104.65
2022-12-23T07:42:16.980Z,100106.33
2022-12-23T07:43:23.803Z,100109.08
2022-12-23T07:44:26.815Z,100106.74
2022-12-23T07:45:30.614Z,100110.16
2022-12-23T07:46:33.801Z,100110.72
2022-12-23T07:47:37.054Z,100110.55
2022-12-23T07:48:41.917Z,100110.92
2022-12-23T07:49:44.999Z,100108.05
2022-12-23T07:50:48.022Z,100104.39
2022-12-23T07:51:51.024Z,100105.59
2022-12-23T07:52:55.038Z,100105.96
2022-12-23T07:53:58.214Z,100105.51
2022-12-23T07:55:01.157Z,100102.27
2022-12-23T07:56:04.602Z,100103.23
2022-12-23T07:57:07.804Z,100102.90
2022-12-23T07:58:10.785Z,100104.13
2022-12-23T07:59:14.236Z,100104.36
2022-12-23T08:00:18.281Z,100105.05
2022-12-23T08:01:21.875Z,100103.50
2022-12-23T08:02:25.440Z,100103.14
2022-12-23T08:03:29.765Z,100103.64
2022-12-23T08:04:33.032Z,100103.77
2022-12-23T08:05:36.116Z,100102.04
2022-12-23T08:06:39.178Z,100103.38
2022-12-23T08:07:42.640Z,100103.13
2022-12-23T08:08:46.867Z,100106.58
2022-12-23T08:09:50.146Z,100107.52
2022-12-23T08:11:00.745Z,100108.30
2022-12-23T08:12:03.961Z,100110.11
2022-12-23T08:13:06.868Z,100104.21
2022-12-23T08:14:09.917Z,100105.05
2022-12-23T08:15:13.057Z,100103.48
2022-12-23T08:16:16.151Z,100103.74
2022-12-23T08:17:21.512Z,100102.98
2022-12-23T08:18:25.759Z,100104.95
2022-12-23T08:19:28.788Z,100103.55
2022-12-23T08:20:32.060Z,100105.69
2022-12-23T08:21:35.014Z,100103.66
2022-12-23T08:22:38.230Z,100105.75
2022-12-23T08:23:42.159Z,100112.14
2022-12-23T08:24:45.303Z,100115.67
2022-12-23T08:25:48.519Z,100112.83
2022-12-23T08:26:51.703Z,100114.77
2022-12-23T08:27:54.666Z,100115.88
2022-12-23T08:28:57.781Z,100116.90
2022-12-23T08:30:00.842Z,100121.41
2022-12-23T08:31:05.615Z,100123.58
2022-12-23T08:32:08.807Z,100125.80
2022-12-23T08:33:11.904Z,100129.29
2022-12-23T08:34:14.912Z,100135.89
2022-12-23T08:35:17.978Z,100128.99
2022-12-23T08:36:25.468Z,100133.06
2022-12-23T08:37:28.739Z,100133.67
2022-12-23T08:38:32.882Z,100131.02
2022-12-23T08:39:36.022Z,100130.77
2022-12-23T08:40:40.794Z,100131.38
2022-12-23T08:41:46.742Z,100139.66
2022-12-23T08:42:49.759Z,100135.23
2022-12-23T08:43:53.685Z,100136.83
2022-12-23T08:44:56.613Z,100137.93
2022-12-23T08:45:59.760Z,100133.71
2022-12-23T08:47:03.325Z,100132.23
2022-12-23T08:48:09.348Z,100131.14
2022-12-23T08:49:12.832Z,100131.25
2022-12-23T08:50:15.856Z,100128.21
2022-12-23T08:51:21.642Z,100130.17
2022-12-23T08:52:24.789Z,100137.95
2022-12-23T08:53:27.761Z,100136.19
2022-12-23T08:54:30.694Z,100135.09
2022-12-23T08:55:38.732Z,100134.02
2022-12-23T08:56:42.908Z,100132.92
2022-12-23T08:57:46.082Z,100139.43
2022-12-23T08:58:52.788Z,100133.70
2022-12-23T08:59:55.825Z,100129.80
2022-12-23T09:01:04.098Z,100130.96
2022-12-23T09:02:10.916Z,100128.70
2022-12-23T09:03:14.577Z,100125.41
2022-12-23T09:04:17.773Z,100126.05
2022-12-23T09:05:20.818Z,100126.16
2022-12-23T09:06:30.478Z,100122.88
2022-12-23T09:07:33.715Z,100126.36
2022-12-23T09:08:37.225Z,100124.68
2022-12-23T09:09:40.188Z,100118.70
2022-12-23T09:10:44.311Z,100119.23
2022-12-23T09:11:47.525Z,100123.02
2022-12-23T09:12:50.657Z,100120.99
2022-12-23T09:13:53.975Z,100118.33
2022-12-23T09:14:57.054Z,100120.36
2022-12-23T09:16:00.148Z,100115.08
2022-12-23T09:17:03.123Z,100116.46
2022-12-23T09:18:06.218Z,100113.69
2022-12-23T09:19:09.588Z,100113.23
2022-12-23T09:20:12.607Z,100111.88
2022-12-23T09:21:18.332Z,100108.64
2022-12-23T09:22:21.373Z,100103.65
2022-12-23T09:23:24.734Z,100101.30
2022-12-23T09:24:28.052Z,100104.42
2022-12-23T09:25:33.621Z,100106.19
2022-12-23T09:26:36.715Z,100105.29
2022-12-23T09:27:39.704Z,100101.84
2022-12-23T09:28:42.770Z,100105.42
2022-12-23T09:29:45.889Z,100106.27
2022-12-23T09:30:49.136Z,100109.02
2022-12-23T09:31:52.273Z,100110.99
2022-12-23T09:32:55.484Z,100116.86
2022-12-23T09:33:58.599Z,100117.18
2022-12-23T09:35:01.763Z,100117.14
2022-12-23T09:36:06.061Z,100114.75
2022-12-23T09:37:09.046Z,100116.20
2022-12-23T09:38:12.201Z,100117.64
2022-12-23T09:39:15.173Z,100117.02
2022-12-23T09:40:21.083Z,100118.23
2022-12-23T09:41:47.511Z,100118.52
2022-12-23T09:43:02.755Z,100121.18
2022-12-23T09:44:36.458Z,100125.48
2022-12-23T09:45:42.594Z,100124.30
2022-12-23T09:46:51.828Z,100123.35
2022-12-23T09:47:56.716Z,100126.02
2022-12-23T09:49:05.213Z,100120.81
2022-12-23T09:50:24.013Z,100120.77
2022-12-23T09:51:29.200Z,100117.70
2022-12-23T09:53:13.007Z,100121.44
2022-12-23T09:54:29.830Z,100118.84
2022-12-23T09:56:02.529Z,100121.91
2022-12-23T09:57:31.866Z,100126.27
2022-12-23T09:58:47.070Z,100122.45
2022-12-23T10:00:14.104Z,100122.58
2022-12-23T10:01:44.659Z,100112.65
2022-12-23T10:03:19.707Z,100111.55
2022-12-23T10:04:22.959Z,100107.92
2022-12-23T10:05:42.594Z,100106.56
2022-12-23T10:06:50.989Z,100102.27
2022-12-23T10:08:03.905Z,100104.89
2022-12-23T10:09:10.022Z,100105.52
2022-12-23T10:10:44.332Z,100101.83
2022-12-23T10:11:53.433Z,100101.94
2022-12-23T10:13:00.448Z,100096.78
2022-12-23T10:14:19.625Z,100095.70
2022-12-23T10:15:29.626Z,100097.27
2022-12-23T10:16:38.560Z,100092.84
2022-12-23T10:17:42.979Z,100093.54
2022-12-23T10:19:12.829Z,100088.98
2022-12-23T10:20:20.716Z,100096.50
2022-12-23T10:21:33.053Z,100094.94
2022-12-23T10:22:41.959Z,100097.75
2022-12-23T10:23:51.314Z,100093.69
2022-12-23T10:24:57.701Z,100097.92
2022-12-23T10:26:03.920Z,100097.88
2022-12-23T10:27:26.496Z,100100.22
2022-12-23T10:28:29.508Z,100097.88
2022-12-23T10:29:34.145Z,100098.45
2022-12-23T10:31:05.936Z,100095.95
2022-12-23T10:32:35.968Z,100094.64
2022-12-23T10:33:50.027Z,100094.11
2022-12-23T10:35:05.002Z,100099.30
2022-12-23T10:36:22.905Z,100099.32
2022-12-23T10:37:32.341Z,100103.63
2022-12-23T10:38:44.959Z,100100.23
2022-12-23T10:39:47.821Z,100102.48
2022-12-23T10:40:57.714Z,100102.92
2022-12-23T10:42:22.052Z,100103.54
2022-12-23T10:43:40.226Z,100103.00
2022-12-23T10:44:59.147Z,100101.63
2022-12-23T10:46:27.511Z,100102.83
2022-12-23T10:47:45.588Z,100103.45
2022-12-23T10:49:25.461Z,100104.30
2022-12-23T10:50:46.151Z,100105.16
2022-12-23T10:51:53.682Z,100107.34
2022-12-23T10:53:01.126Z,100109.80
2022-12-23T10:54:09.905Z,100107.40
2022-12-23T10:55:33.125Z,100109.78
2022-12-23T10:56:37.517Z,100119.30
2022-12-23T10:57:40.920Z,100109.88
2022-12-23T10:58:50.000Z,100106.95
2022-12-23T10:59:53.736Z,100112.74
2022-12-23T11:00:59.619Z,100110.95
2022-12-23T11:02:29.519Z,100111.92
2022-12-23T11:03:59.714Z,100115.33
2022-12-23T11:05:02.931Z,100113.69
2022-12-23T11:06:08.449Z,100113.27
2022-12-23T11:07:43.947Z,100112.90
2022-12-23T11:08:48.469Z,100109.45
2022-12-23T11:10:00.785Z,100111.79
2022-12-23T11:11:04.705Z,100113.98
2022-12-23T11:12:10.123Z,100111.37
2022-12-23T11:13:24.682Z,100108.54
2022-12-23T11:14:33.491Z,100109.98
2022-12-23T11:15:39.915Z,100110.56
2022-12-23T11:16:47.025Z,100113.46
2022-12-23T11:18:15.867Z,100118.80
2022-12-23T11:19:18.974Z,100113.47
2022-12-23T11:20:22.036Z,100118.88
2022-12-23T11:21:26.591Z,100114.89
2022-12-23T11:22:29.708Z,100117.63
2022-12-23T11:23:36.574Z,100118.41
2022-12-23T11:24:43.280Z,100122.48
2022-12-23T11:25:47.112Z,100120.95
2022-12-23T11:27:07.018Z,100120.75
2022-12-23T11:28:19.988Z,100120.58
2022-12-23T11:29:28.809Z,100118.41
2022-12-23T11:30:53.462Z,100120.88
2022-12-23T11:31:59.352Z,100124.52
2022-12-23T11:33:02.373Z,100123.50
2022-12-23T11:34:14.232Z,100121.95
2022-12-23T11:35:26.306Z,100119.19
2022-12-23T11:36:31.488Z,100123.11
2022-12-23T11:37:43.224Z,100122.73
2022-12-23T11:39:00.288Z,100124.18
2022-12-23T11:40:14.721Z,100126.09
2022-12-23T11:41:22.533Z,100124.98
2022-12-23T11:42:30.251Z,100120.92
2022-12-23T11:43:34.228Z,100123.48
2022-12-23T11:44:45.971Z,100117.66
2022-12-23T11:46:17.480Z,100118.48
2022-12-23T11:47:23.615Z,100123.29
2022-12-23T11:48:30.468Z,100118.61
2022-12-23T11:49:33.410Z,100119.51
2022-12-23T11:50:39.555Z,100116.06
2022-12-23T11:52:11.202Z,100115.16
2022-12-23T11:53:25.161Z,100114.60
2022-12-23T11:54:29.333Z,100115.14
2022-12-23T11:55:33.026Z,100117.88
2022-12-23T11:56:40.657Z,100119.80
2022-12-23T11:57:46.718Z,100116.89
2022-12-23T11:58:57.121Z,100114.67
2022-12-23T12:00:01.579Z,100114.55
2022-12-23T12:01:18.787Z,100115.55
2022-12-23T12:02:47.537Z,100117.61
2022-12-23T12:03:55.906Z,100123.67
2022-12-23T12:05:38.377Z,100120.35
2022-12-23T12:06:48.425Z,100119.48
2022-12-23T12:08:01.314Z,100119.84
2022-12-23T12:09:06.784Z,100115.09
2022-12-23T12:10:18.248Z,100111.82
2022-12-23T12:11:31.358Z,100115.43
2022-12-23T12:12:34.607Z,100114.81
2022-12-23T12:13:48.428Z,100110.95
2022-12-23T12:14:54.533Z,100111.00
2022-12-23T12:16:11.011Z,100110.30
2022-12-23T12:17:22.775Z,100106.73
2022-12-23T12:18:26.497Z,100105.21
2022-12-23T12:19:35.757Z,100101.92
2022-12-23T12:20:53.268Z,100097.17
2022-12-23T12:22:02.521Z,100098.86
2022-12-23T12:23:14.711Z,100104.34
2022-12-23T12:24:24.280Z,100096.55
2022-12-23T12:25:48.882Z,100100.00
2022-12-23T12:26:57.599Z,100102.54
2022-12-23T12:28:04.270Z,100098.08
2022-12-23T12:29:28.576Z,100098.33
2022-12-23T12:30:40.934Z,100096.89
2022-12-23T12:31:52.457Z,100098.70
2022-12-23T12:33:11.938Z,100099.98
2022-12-23T12:34:49.642Z,100105.06
2022-12-23T12:36:15.285Z,100107.89
2022-12-23T12:37:24.399Z,100103.50
2022-12-23T12:38:27.342Z,100104.73
2022-12-23T12:39:42.938Z,100101.25
2022-12-23T12:40:51.093Z,100103.42
2022-12-23T12:42:05.491Z,100101.73
2022-12-23T12:43:23.561Z,100103.34
2022-12-23T12:44:43.451Z,100104.61
2022-12-23T12:45:59.010Z,100112.05
2022-12-23T12:47:36.142Z,100122.05
2022-12-23T12:48:46.604Z,100127.59
2022-12-23T12:50:12.655Z,100122.72
2022-12-23T12:51:27.579Z,100118.34
2022-12-23T12:52:39.023Z,100121.86
2022-12-23T12:53:54.753Z,100119.38
2022-12-23T12:55:06.166Z,100115.15
2022-12-23T12:56:22.701Z,100113.02
2022-12-23T12:57:26.109Z,100112.73
2022-12-23T12:58:29.258Z,100113.93
2022-12-23T12:59:35.602Z,100112.69
2022-12-23T13:01:03.712Z,100115.66